createdAt,value
2022-09-14T00:00:24.752Z,967.67
2022-09-14T00:01:26.493Z,967.55
2022-09-14T00:02:24.883Z,967.58
2022-09-14T00:03:24.879Z,967.54
2022-09-14T00:04:24.701Z,967.60
2022-09-14T00:05:24.700Z,967.54
2022-09-14T00:06:24.675Z,967.50
2022-09-14T00:07:24.664Z,967.48
2022-09-14T00:08:24.671Z,967.46
2022-09-14T00:09:24.634Z,967.42
2022-09-14T00:10:24.620Z,967.42
2022-09-14T00:11:24.608Z,967.41
2022-09-14T00:12:24.598Z,967.49
2022-09-14T00:13:24.581Z,967.50
2022-09-14T00:14:24.565Z,967.51
2022-09-14T00:15:24.557Z,967.50
2022-09-14T00:16:24.636Z,967.47
2022-09-14T00:17:24.537Z,967.39
2022-09-14T00:18:24.514Z,967.29
2022-09-14T00:19:24.505Z,967.35
2022-09-14T00:20:24.488Z,967.33
2022-09-14T00:21:24.474Z,967.34
2022-09-14T00:22:24.458Z,967.37
2022-09-14T00:23:24.450Z,967.32
2022-09-14T00:24:24.450Z,967.35
2022-09-14T00:25:24.423Z,967.34
2022-09-14T00:26:24.405Z,967.35
2022-09-14T00:27:24.398Z,967.28
2022-09-14T00:28:24.379Z,967.23
2022-09-14T00:29:24.373Z,967.20
2022-09-14T00:30:24.353Z,967.18
2022-09-14T00:31:24.406Z,967.18
2022-09-14T00:32:24.326Z,967.24
2022-09-14T00:33:24.312Z,967.28
2022-09-14T00:34:24.294Z,967.28
2022-09-14T00:35:24.284Z,967.29
2022-09-14T00:36:24.266Z,967.27
2022-09-14T00:37:24.260Z,967.12
2022-09-14T00:38:24.244Z,967.09
2022-09-14T00:39:24.232Z,967.02
2022-09-14T00:40:24.388Z,966.92
2022-09-14T00:41:24.202Z,966.94
2022-09-14T00:42:24.188Z,966.87
2022-09-14T00:43:24.175Z,966.79
2022-09-14T00:44:24.161Z,966.93
2022-09-14T00:45:24.199Z,966.98
2022-09-14T00:46:24.136Z,966.98
2022-09-14T00:47:24.122Z,966.95
2022-09-14T00:48:24.110Z,967.01
2022-09-14T00:49:24.092Z,967.04
2022-09-14T00:50:24.093Z,967.06
2022-09-14T00:51:24.069Z,967.02
2022-09-14T00:52:24.059Z,967.00
2022-09-14T00:53:24.036Z,966.95
2022-09-14T00:54:24.031Z,966.94
2022-09-14T00:55:24.011Z,966.96
2022-09-14T00:56:24.307Z,966.99
2022-09-14T00:57:23.992Z,967.02
2022-09-14T00:58:23.979Z,967.01
2022-09-14T00:59:23.960Z,966.97
2022-09-14T01:00:23.948Z,966.89
2022-09-14T01:01:24.020Z,966.93
2022-09-14T01:02:23.970Z,966.91
2022-09-14T01:03:23.906Z,966.89
2022-09-14T01:04:23.896Z,966.87
2022-09-14T01:05:23.873Z,966.87
2022-09-14T01:06:23.864Z,966.84
2022-09-14T01:07:23.852Z,966.79
2022-09-14T01:08:23.837Z,966.84
2022-09-14T01:09:23.825Z,966.80
2022-09-14T01:10:23.815Z,966.82
2022-09-14T01:11:23.797Z,966.84
2022-09-14T01:12:23.811Z,966.91
2022-09-14T01:13:23.765Z,966.91
2022-09-14T01:14:23.757Z,966.93
2022-09-14T01:15:23.739Z,967.02
2022-09-14T01:16:23.782Z,967.03
2022-09-14T01:17:23.716Z,967.02
2022-09-14T01:18:23.706Z,967.00
2022-09-14T01:20:40.388Z,966.99
2022-09-14T01:21:40.380Z,967.04
2022-09-14T01:22:40.358Z,966.89
2022-09-14T01:23:40.350Z,966.91
2022-09-14T01:24:40.327Z,966.86
2022-09-14T01:25:40.318Z,966.77
2022-09-14T01:26:40.300Z,966.60
2022-09-14T01:27:40.400Z,966.74
2022-09-14T01:28:40.274Z,966.85
2022-09-14T01:29:40.266Z,966.80
2022-09-14T01:30:40.247Z,966.75
2022-09-14T01:31:40.289Z,966.77
2022-09-14T01:32:40.229Z,966.99
2022-09-14T01:33:40.217Z,966.83
2022-09-14T01:34:40.199Z,966.73
2022-09-14T01:35:40.189Z,966.73
2022-09-14T01:36:40.168Z,966.78
2022-09-14T01:37:40.162Z,966.89
2022-09-14T01:38:40.140Z,966.84
2022-09-14T01:39:40.132Z,966.82
2022-09-14T01:40:40.122Z,966.98
2022-09-14T01:41:40.110Z,967.08
2022-09-14T01:42:40.092Z,967.03
2022-09-14T01:43:40.192Z,966.97
2022-09-14T01:44:40.066Z,966.95
2022-09-14T01:45:40.136Z,966.98
2022-09-14T01:46:40.039Z,967.08
2022-09-14T01:47:40.029Z,967.08
2022-09-14T01:48:40.007Z,967.11
2022-09-14T01:49:39.995Z,967.16
2022-09-14T01:50:39.981Z,967.44
2022-09-14T01:51:39.968Z,967.52
2022-09-14T01:52:39.954Z,967.44
2022-09-14T01:53:39.944Z,967.45
2022-09-14T01:54:39.927Z,967.30
2022-09-14T01:55:39.923Z,967.26
2022-09-14T01:56:39.905Z,967.37
2022-09-14T01:57:39.891Z,967.48
2022-09-14T01:58:39.874Z,967.48
2022-09-14T01:59:39.890Z,967.49
2022-09-14T02:00:39.978Z,967.43
2022-09-14T02:01:39.851Z,967.40
2022-09-14T02:02:39.892Z,967.40
2022-09-14T02:03:40.012Z,967.36
2022-09-14T02:04:39.801Z,967.44
2022-09-14T02:05:39.787Z,967.50
2022-09-14T02:06:39.771Z,967.47
2022-09-14T02:07:39.759Z,967.45
2022-09-14T02:08:39.742Z,967.43
2022-09-14T02:09:39.726Z,967.44
2022-09-14T02:10:39.722Z,967.42
2022-09-14T02:11:39.699Z,967.39
2022-09-14T02:12:39.691Z,967.41
2022-09-14T02:13:39.731Z,967.43
2022-09-14T02:14:39.660Z,967.44
2022-09-14T02:15:39.665Z,967.37
2022-09-14T02:16:39.733Z,967.46
2022-09-14T02:17:39.869Z,967.47
2022-09-14T02:18:39.610Z,967.44
2022-09-14T02:19:39.598Z,967.39
2022-09-14T02:20:39.582Z,967.35
2022-09-14T02:21:39.564Z,967.29
2022-09-14T02:22:39.557Z,967.30
2022-09-14T02:23:39.543Z,967.26
2022-09-14T02:25:05.068Z,967.22
2022-09-14T02:26:05.044Z,967.31
2022-09-14T02:27:05.041Z,967.31
2022-09-14T02:28:05.016Z,967.19
2022-09-14T02:29:05.006Z,967.28
2022-09-14T02:30:04.996Z,967.28
2022-09-14T02:31:05.044Z,967.34
2022-09-14T02:32:04.966Z,967.36
2022-09-14T02:33:04.953Z,967.26
2022-09-14T02:34:04.942Z,967.38
2022-09-14T02:35:04.926Z,967.41
2022-09-14T02:36:04.915Z,967.45
2022-09-14T02:37:04.898Z,967.44
2022-09-14T02:38:04.886Z,967.44
2022-09-14T02:39:04.874Z,967.43
2022-09-14T02:40:04.972Z,967.33
2022-09-14T02:41:04.895Z,967.39
2022-09-14T02:42:04.824Z,967.41
2022-09-14T02:43:04.822Z,967.39
2022-09-14T02:44:04.799Z,967.47
2022-09-14T02:45:04.799Z,967.50
2022-09-14T02:46:04.776Z,967.51
2022-09-14T02:47:04.852Z,967.59
2022-09-14T02:48:04.752Z,967.45
2022-09-14T02:49:04.733Z,967.53
2022-09-14T02:50:04.728Z,967.54
2022-09-14T02:51:04.708Z,967.52
2022-09-14T02:52:04.698Z,967.47
2022-09-14T02:53:04.677Z,967.46
2022-09-14T02:54:04.667Z,967.53
2022-09-14T02:55:04.654Z,967.52
2022-09-14T02:56:04.646Z,967.54
2022-09-14T02:57:04.625Z,967.40
2022-09-14T02:58:04.613Z,967.39
2022-09-14T02:59:04.598Z,967.41
2022-09-14T03:00:04.587Z,967.34
2022-09-14T03:01:04.720Z,967.35
2022-09-14T03:02:04.639Z,967.35
2022-09-14T03:03:04.658Z,967.38
2022-09-14T03:04:04.530Z,967.33
2022-09-14T03:05:04.518Z,967.28
2022-09-14T03:06:04.600Z,967.28
2022-09-14T03:07:04.490Z,967.33
2022-09-14T03:08:04.471Z,967.19
2022-09-14T03:09:04.462Z,967.13
2022-09-14T03:10:04.443Z,967.05
2022-09-14T03:11:04.443Z,967.04
2022-09-14T03:12:04.416Z,966.96
2022-09-14T03:13:04.411Z,966.95
2022-09-14T03:14:04.392Z,967.06
2022-09-14T03:15:04.373Z,967.04
2022-09-14T03:16:04.421Z,967.06
2022-09-14T03:17:04.353Z,967.04
2022-09-14T03:18:04.343Z,967.06
2022-09-14T03:19:04.349Z,967.13
2022-09-14T03:20:04.314Z,967.16
2022-09-14T03:21:04.299Z,967.13
2022-09-14T03:22:04.290Z,967.14
2022-09-14T03:23:04.278Z,967.09
2022-09-14T03:24:04.261Z,967.14
2022-09-14T03:25:04.243Z,967.08
2022-09-14T03:26:04.229Z,967.21
2022-09-14T03:27:04.214Z,967.27
2022-09-14T03:28:04.205Z,967.22
2022-09-14T03:29:04.189Z,967.10
2022-09-14T03:30:04.175Z,967.16
2022-09-14T03:31:04.198Z,967.15
2022-09-14T03:32:04.149Z,967.20
2022-09-14T03:33:04.138Z,967.18
2022-09-14T03:34:04.129Z,967.17
2022-09-14T03:35:04.130Z,967.07
2022-09-14T03:36:04.101Z,967.09
2022-09-14T03:37:04.086Z,967.10
2022-09-14T03:38:04.077Z,967.02
2022-09-14T03:39:04.056Z,966.93
2022-09-14T03:40:04.093Z,967.01
2022-09-14T03:41:04.026Z,967.05
2022-09-14T03:42:04.014Z,967.03
2022-09-14T03:43:04.000Z,966.98
2022-09-14T03:44:03.989Z,966.95
2022-09-14T03:45:03.977Z,966.96
2022-09-14T03:46:04.026Z,966.92
2022-09-14T03:47:04.009Z,966.99
2022-09-14T03:48:03.939Z,966.99
2022-09-14T03:49:03.919Z,966.86
2022-09-14T03:50:03.910Z,966.88
2022-09-14T03:51:04.006Z,966.94
2022-09-14T03:52:03.882Z,966.91
2022-09-14T03:53:03.871Z,966.96
2022-09-14T03:54:03.856Z,967.00
2022-09-14T03:55:03.836Z,966.92
2022-09-14T03:56:03.829Z,966.84
2022-09-14T03:57:03.818Z,966.80
2022-09-14T03:58:03.806Z,966.79
2022-09-14T03:59:03.789Z,966.83
2022-09-14T04:00:03.777Z,966.79
2022-09-14T04:01:03.764Z,966.67
2022-09-14T04:02:03.813Z,966.70
2022-09-14T04:03:03.822Z,966.64
2022-09-14T04:04:03.729Z,966.64
2022-09-14T04:05:03.703Z,966.59
2022-09-14T04:06:03.691Z,966.68
2022-09-14T04:07:03.698Z,966.59
2022-09-14T04:08:03.664Z,966.53
2022-09-14T04:09:03.651Z,966.57
2022-09-14T04:10:03.642Z,966.55
2022-09-14T04:11:03.626Z,966.43
2022-09-14T04:12:03.612Z,966.56
2022-09-14T04:13:03.601Z,966.58
2022-09-14T04:14:03.594Z,966.43
2022-09-14T04:15:03.574Z,966.49
2022-09-14T04:16:03.653Z,966.57
2022-09-14T04:17:03.541Z,966.57
2022-09-14T04:18:03.530Z,966.60
2022-09-14T04:19:03.515Z,966.62
2022-09-14T04:20:03.507Z,966.66
2022-09-14T04:21:07.988Z,966.68
2022-09-14T04:22:03.484Z,966.66
2022-09-14T04:23:03.483Z,966.72
2022-09-14T04:24:14.643Z,966.73
2022-09-14T04:25:04.466Z,966.69
2022-09-14T04:26:03.437Z,966.66
2022-09-14T04:27:03.411Z,966.73
2022-09-14T04:28:19.571Z,966.69
2022-09-14T04:29:04.405Z,966.68
2022-09-14T04:30:03.369Z,966.65
2022-09-14T04:31:03.385Z,966.74
2022-09-14T04:32:03.347Z,966.76
2022-09-14T04:33:03.325Z,966.73
2022-09-14T04:34:03.321Z,966.79
2022-09-14T04:35:03.301Z,966.73
2022-09-14T04:36:03.288Z,966.73
2022-09-14T04:37:03.277Z,966.73
2022-09-14T04:38:03.269Z,966.77
2022-09-14T04:39:03.278Z,966.74
2022-09-14T04:40:03.340Z,966.72
2022-09-14T04:41:03.227Z,966.68
2022-09-14T04:42:03.215Z,966.73
2022-09-14T04:43:03.197Z,966.72
2022-09-14T04:44:03.187Z,966.65
2022-09-14T04:45:03.174Z,966.80
2022-09-14T04:46:03.188Z,966.85
2022-09-14T04:47:03.186Z,966.87
2022-09-14T04:48:03.126Z,966.90
2022-09-14T04:49:03.117Z,966.92
2022-09-14T04:50:03.112Z,966.92
2022-09-14T04:51:03.352Z,966.82
2022-09-14T04:52:03.082Z,966.85
2022-09-14T04:53:03.058Z,966.92
2022-09-14T04:54:03.051Z,966.89
2022-09-14T04:55:03.049Z,966.97
2022-09-14T04:56:03.022Z,966.87
2022-09-14T04:57:03.024Z,966.98
2022-09-14T04:58:02.994Z,966.92
2022-09-14T04:59:02.977Z,966.95
2022-09-14T05:00:02.968Z,966.91
2022-09-14T05:01:02.982Z,966.86
2022-09-14T05:02:02.969Z,966.84
2022-09-14T05:03:02.974Z,966.77
2022-09-14T05:04:03.238Z,966.71
2022-09-14T05:05:02.896Z,966.79
2022-09-14T05:06:02.894Z,966.81
2022-09-14T05:07:02.892Z,966.74
2022-09-14T05:08:02.863Z,966.75
2022-09-14T05:09:02.845Z,966.78
2022-09-14T05:10:02.832Z,966.80
2022-09-14T05:11:02.839Z,966.82
2022-09-14T05:12:02.806Z,966.83
2022-09-14T05:13:02.791Z,966.87
2022-09-14T05:14:02.777Z,966.90
2022-09-14T05:15:02.766Z,966.88
2022-09-14T05:16:02.795Z,966.84
2022-09-14T05:17:02.738Z,966.91
2022-09-14T05:18:02.730Z,966.90
2022-09-14T05:19:02.715Z,966.89
2022-09-14T05:20:02.696Z,966.79
2022-09-14T05:21:06.356Z,966.86
2022-09-14T05:22:02.669Z,966.86
2022-09-14T05:23:02.661Z,966.92
2022-09-14T05:24:02.645Z,966.89
2022-09-14T05:25:02.658Z,966.88
2022-09-14T05:26:02.633Z,966.89
2022-09-14T05:27:02.624Z,966.93
2022-09-14T05:28:02.595Z,966.90
2022-09-14T05:29:02.577Z,966.84
2022-09-14T05:30:02.571Z,966.78
2022-09-14T05:31:02.660Z,966.78
2022-09-14T05:32:02.545Z,966.80
2022-09-14T05:33:02.521Z,966.79
2022-09-14T05:34:02.521Z,966.80
2022-09-14T05:35:02.495Z,966.89
2022-09-14T05:36:02.489Z,966.83
2022-09-14T05:37:02.470Z,966.85
2022-09-14T05:38:02.478Z,966.84
2022-09-14T05:39:02.443Z,966.85
2022-09-14T05:40:02.494Z,966.85
2022-09-14T05:41:02.423Z,966.80
2022-09-14T05:42:02.401Z,966.87
2022-09-14T05:43:02.537Z,966.84
2022-09-14T05:44:02.380Z,966.83
2022-09-14T05:45:02.369Z,966.81
2022-09-14T05:46:02.430Z,966.71
2022-09-14T05:47:02.339Z,966.70
2022-09-14T05:48:02.320Z,966.70
2022-09-14T05:49:02.311Z,966.64
2022-09-14T05:50:02.419Z,966.71
2022-09-14T05:51:02.286Z,966.75
2022-09-14T05:52:02.269Z,966.62
2022-09-14T05:53:02.257Z,966.64
2022-09-14T05:54:02.243Z,966.68
2022-09-14T05:55:02.227Z,966.68
2022-09-14T05:56:02.219Z,966.65
2022-09-14T05:57:02.200Z,966.71
2022-09-14T05:58:02.184Z,966.83
2022-09-14T05:59:02.248Z,966.76
2022-09-14T06:00:02.159Z,966.76
2022-09-14T06:01:02.141Z,966.73
2022-09-14T06:02:02.389Z,966.78
2022-09-14T06:03:02.121Z,966.80
2022-09-14T06:04:02.111Z,966.75
2022-09-14T06:05:02.127Z,966.73
2022-09-14T06:06:02.084Z,966.76
2022-09-14T06:07:17.898Z,966.79
2022-09-14T06:08:03.075Z,966.78
2022-09-14T06:09:02.032Z,966.79
2022-09-14T06:10:02.055Z,966.81
2022-09-14T06:11:02.006Z,966.77
2022-09-14T06:12:02.000Z,966.87
2022-09-14T06:13:01.987Z,966.87
2022-09-14T06:14:01.969Z,966.80
2022-09-14T06:15:02.015Z,966.86
2022-09-14T06:16:01.941Z,966.81
2022-09-14T06:17:01.929Z,966.83
2022-09-14T06:18:01.917Z,966.78
2022-09-14T06:19:01.898Z,966.86
2022-09-14T06:20:04.624Z,966.85
2022-09-14T06:21:01.877Z,966.92
2022-09-14T06:22:01.859Z,966.87
2022-09-14T06:23:01.854Z,966.94
2022-09-14T06:24:01.836Z,966.90
2022-09-14T06:25:01.815Z,966.91
2022-09-14T06:26:01.812Z,966.93
2022-09-14T06:27:01.789Z,966.97
2022-09-14T06:28:01.782Z,967.04
2022-09-14T06:29:01.766Z,966.99
2022-09-14T06:30:01.752Z,966.95
2022-09-14T06:31:01.762Z,967.02
2022-09-14T06:32:01.726Z,966.95
2022-09-14T06:33:01.725Z,966.96
2022-09-14T06:34:01.695Z,966.97
2022-09-14T06:35:01.683Z,966.98
2022-09-14T06:36:01.671Z,966.94
2022-09-14T06:37:01.657Z,966.92
2022-09-14T06:38:01.645Z,966.97
2022-09-14T06:39:01.633Z,966.91
2022-09-14T06:40:01.709Z,966.95
2022-09-14T06:41:01.605Z,966.92
2022-09-14T06:42:01.599Z,966.98
2022-09-14T06:43:01.580Z,966.96
2022-09-14T06:44:01.623Z,966.93
2022-09-14T06:45:01.548Z,966.93
2022-09-14T06:46:01.544Z,966.94
2022-09-14T06:47:01.541Z,966.80
2022-09-14T06:48:01.513Z,966.82
2022-09-14T06:49:01.494Z,966.90
2022-09-14T06:50:01.486Z,966.91
2022-09-14T06:51:01.466Z,966.87
2022-09-14T06:52:01.465Z,966.91
2022-09-14T06:53:01.436Z,966.89
2022-09-14T06:54:01.444Z,966.86
2022-09-14T06:55:01.416Z,966.93
2022-09-14T06:56:01.411Z,966.84
2022-09-14T06:57:01.386Z,966.89
2022-09-14T06:58:01.373Z,966.84
2022-09-14T06:59:01.359Z,966.93
2022-09-14T07:00:01.350Z,966.95
2022-09-14T07:01:01.329Z,966.93
2022-09-14T07:02:01.321Z,966.97
2022-09-14T07:03:01.408Z,966.98
2022-09-14T07:04:01.297Z,966.99
2022-09-14T07:05:01.276Z,967.00
2022-09-14T07:06:01.269Z,966.96
2022-09-14T07:07:01.248Z,966.97
2022-09-14T07:08:01.241Z,967.03
2022-09-14T07:09:01.221Z,967.01
2022-09-14T07:10:01.218Z,967.04
2022-09-14T07:11:01.193Z,966.96
2022-09-14T07:12:01.186Z,967.04
2022-09-14T07:13:01.163Z,967.03
2022-09-14T07:14:01.162Z,966.95
2022-09-14T07:15:01.141Z,966.94
2022-09-14T07:16:01.155Z,967.05
2022-09-14T07:17:01.117Z,967.01
2022-09-14T07:18:01.100Z,966.90
2022-09-14T07:19:01.109Z,966.91
2022-09-14T07:20:01.075Z,966.88
2022-09-14T07:21:05.263Z,966.89
2022-09-14T07:22:01.054Z,966.81
2022-09-14T07:23:01.035Z,966.86
2022-09-14T07:24:01.022Z,966.88
2022-09-14T07:25:01.011Z,966.85
2022-09-14T07:26:00.998Z,966.94
2022-09-14T07:27:00.985Z,966.98
2022-09-14T07:28:00.971Z,967.08
2022-09-14T07:29:00.963Z,967.08
2022-09-14T07:30:00.936Z,966.95
2022-09-14T07:31:01.001Z,966.97
2022-09-14T07:32:00.908Z,966.96
2022-09-14T07:33:00.900Z,967.06
2022-09-14T07:34:00.889Z,967.02
2022-09-14T07:35:00.894Z,967.03
2022-09-14T07:36:00.863Z,967.06
2022-09-14T07:37:00.843Z,967.09
2022-09-14T07:38:00.834Z,967.08
2022-09-14T07:39:00.822Z,967.14
2022-09-14T07:40:00.912Z,967.14
2022-09-14T07:41:00.795Z,967.10
2022-09-14T07:42:00.782Z,967.04
2022-09-14T07:43:00.767Z,967.07
2022-09-14T07:44:00.782Z,967.01
2022-09-14T07:45:00.739Z,966.97
2022-09-14T07:46:00.805Z,967.03
2022-09-14T07:47:00.715Z,967.04
2022-09-14T07:48:00.706Z,967.05
2022-09-14T07:49:00.688Z,967.06
2022-09-14T07:50:00.668Z,967.13
2022-09-14T07:51:00.685Z,967.09
2022-09-14T07:52:00.646Z,967.07
2022-09-14T07:53:00.639Z,967.10
2022-09-14T07:54:00.614Z,967.10
2022-09-14T07:55:00.616Z,967.02
2022-09-14T07:56:00.589Z,966.94
2022-09-14T07:57:00.587Z,967.04
2022-09-14T07:58:00.565Z,966.96
2022-09-14T07:59:24.171Z,967.09
2022-09-14T08:00:01.562Z,966.98
2022-09-14T08:01:00.592Z,967.08
2022-09-14T08:02:00.677Z,967.10
2022-09-14T08:03:00.504Z,967.12
2022-09-14T08:04:04.675Z,967.12
2022-09-14T08:05:00.481Z,967.06
2022-09-14T08:06:00.458Z,967.09
2022-09-14T08:07:00.475Z,967.11
2022-09-14T08:08:00.431Z,967.15
2022-09-14T08:09:00.424Z,967.13
2022-09-14T08:10:00.404Z,967.04
2022-09-14T08:11:00.400Z,967.08
2022-09-14T08:12:00.377Z,967.04
2022-09-14T08:13:00.371Z,967.07
2022-09-14T08:14:00.356Z,967.13
2022-09-14T08:15:00.343Z,967.13
2022-09-14T08:16:00.334Z,967.15
2022-09-14T08:17:00.377Z,967.27
2022-09-14T08:18:00.356Z,967.36
2022-09-14T08:19:00.338Z,967.39
2022-09-14T08:20:00.327Z,967.51
2022-09-14T08:21:00.271Z,967.54
2022-09-14T08:22:00.245Z,967.56
2022-09-14T08:23:00.262Z,967.56
2022-09-14T08:24:00.219Z,967.52
2022-09-14T08:25:00.293Z,967.57
2022-09-14T08:26:00.193Z,967.50
2022-09-14T08:27:00.187Z,967.49
2022-09-14T08:28:00.171Z,967.53
2022-09-14T08:29:00.161Z,967.47
2022-09-14T08:30:00.149Z,967.46
2022-09-14T08:31:00.136Z,967.45
2022-09-14T08:32:00.281Z,967.38
2022-09-14T08:33:02.012Z,967.31
2022-09-14T08:34:00.094Z,967.42
2022-09-14T08:35:00.112Z,967.39
2022-09-14T08:36:00.075Z,967.36
2022-09-14T08:37:00.067Z,967.44
2022-09-14T08:38:00.038Z,967.51
2022-09-14T08:39:00.138Z,967.57
2022-09-14T08:40:00.160Z,967.56
2022-09-14T08:41:00.000Z,967.62
2022-09-14T08:41:59.979Z,967.62
2022-09-14T08:42:59.977Z,967.70
2022-09-14T08:43:59.956Z,967.75
2022-09-14T08:44:59.950Z,967.70
2022-09-14T08:45:59.932Z,967.69
2022-09-14T08:46:59.931Z,967.55
2022-09-14T08:47:59.905Z,967.54
2022-09-14T08:48:59.895Z,967.53
2022-09-14T08:49:59.884Z,967.51
2022-09-14T08:50:59.871Z,967.51
2022-09-14T08:51:59.853Z,967.51
2022-09-14T08:52:59.841Z,967.54
2022-09-14T08:53:59.824Z,967.58
2022-09-14T08:54:59.841Z,967.55
2022-09-14T08:55:59.797Z,967.56
2022-09-14T08:56:59.789Z,967.57
2022-09-14T08:57:59.775Z,967.56
2022-09-14T08:58:59.798Z,967.57
2022-09-14T08:59:59.749Z,967.59
2022-09-14T09:00:59.838Z,967.60
2022-09-14T09:01:59.723Z,967.63
2022-09-14T09:02:59.708Z,967.64
2022-09-14T09:03:59.785Z,967.52
2022-09-14T09:04:59.741Z,967.56
2022-09-14T09:05:59.669Z,967.34
2022-09-14T09:06:59.663Z,967.41
2022-09-14T09:07:59.643Z,967.39
2022-09-14T09:08:59.629Z,967.41
2022-09-14T09:09:59.695Z,967.51
2022-09-14T09:10:59.626Z,967.45
2022-09-14T09:11:59.598Z,967.41
2022-09-14T09:12:59.576Z,967.51
2022-09-14T09:13:59.571Z,967.57
2022-09-14T09:14:59.550Z,967.50
2022-09-14T09:15:59.619Z,967.45
2022-09-14T09:16:59.525Z,967.44
2022-09-14T09:17:59.517Z,967.47
2022-09-14T09:18:59.499Z,967.62
2022-09-14T09:19:59.498Z,967.56
2022-09-14T09:20:59.475Z,967.58
2022-09-14T09:21:59.463Z,967.57
2022-09-14T09:22:59.447Z,967.58
2022-09-14T09:23:59.444Z,967.53
2022-09-14T09:24:59.430Z,967.57
2022-09-14T09:25:59.411Z,967.48
2022-09-14T09:26:59.424Z,967.43
2022-09-14T09:27:59.383Z,967.54
2022-09-14T09:28:59.393Z,967.35
2022-09-14T09:29:59.388Z,967.31
2022-09-14T09:30:59.409Z,967.21
2022-09-14T09:31:59.375Z,967.17
2022-09-14T09:32:59.328Z,967.14
2022-09-14T09:33:59.302Z,967.18
2022-09-14T09:34:59.318Z,967.01
2022-09-14T09:35:59.278Z,967.02
2022-09-14T09:36:59.271Z,967.02
2022-09-14T09:37:59.252Z,966.99
2022-09-14T09:39:02.970Z,966.88
2022-09-14T09:39:59.289Z,966.86
2022-09-14T09:40:59.215Z,966.81
2022-09-14T09:41:59.209Z,966.70
2022-09-14T09:42:59.230Z,966.81
2022-09-14T09:43:59.191Z,966.85
2022-09-14T09:45:02.528Z,966.87
2022-09-14T09:45:59.154Z,966.76
2022-09-14T09:46:59.167Z,966.83
2022-09-14T09:47:59.132Z,966.74
2022-09-14T09:48:59.117Z,966.76
2022-09-14T09:49:59.106Z,966.79
2022-09-14T09:50:59.091Z,966.68
2022-09-14T09:51:59.084Z,966.70
2022-09-14T09:53:02.101Z,966.66
2022-09-14T09:53:59.054Z,966.67
2022-09-14T09:54:59.112Z,966.62
2022-09-14T09:55:59.033Z,966.56
2022-09-14T09:56:59.018Z,966.54
2022-09-14T09:57:59.002Z,966.54
2022-09-14T09:58:59.099Z,966.66
2022-09-14T09:59:58.978Z,966.56
2022-09-14T10:00:58.996Z,966.43
2022-09-14T10:01:59.002Z,966.53
2022-09-14T10:02:58.945Z,966.51
2022-09-14T10:03:58.925Z,966.51
2022-09-14T10:04:58.920Z,966.47
2022-09-14T10:05:58.910Z,966.57
2022-09-14T10:06:58.899Z,966.51
2022-09-14T10:07:58.884Z,966.48
2022-09-14T10:08:58.864Z,966.34
2022-09-14T10:09:58.849Z,966.34
2022-09-14T10:10:58.840Z,966.25
2022-09-14T10:11:58.825Z,966.30
2022-09-14T10:12:58.822Z,966.26
2022-09-14T10:13:58.805Z,966.15
2022-09-14T10:14:58.904Z,966.26
2022-09-14T10:15:58.807Z,966.17
2022-09-14T10:16:58.771Z,966.17
2022-09-14T10:17:58.755Z,966.14
2022-09-14T10:18:58.747Z,966.12
2022-09-14T10:19:58.731Z,966.14
2022-09-14T10:20:58.716Z,966.17
2022-09-14T10:21:58.701Z,966.12
2022-09-14T10:22:58.693Z,966.17
2022-09-14T10:23:58.678Z,966.13
2022-09-14T10:24:58.665Z,966.10
2022-09-14T10:25:58.649Z,965.99
2022-09-14T10:26:58.641Z,966.10
2022-09-14T10:27:58.624Z,966.06
2022-09-14T10:28:58.619Z,966.10
2022-09-14T10:29:58.604Z,966.06
2022-09-14T10:30:58.706Z,966.04
2022-09-14T10:31:58.780Z,965.99
2022-09-14T10:32:58.573Z,966.09
2022-09-14T10:33:58.555Z,966.09
2022-09-14T10:34:58.544Z,966.12
2022-09-14T10:35:58.530Z,966.04
2022-09-14T10:36:58.517Z,966.05
2022-09-14T10:37:58.501Z,965.93
2022-09-14T10:38:58.613Z,965.93
2022-09-14T10:39:58.547Z,965.95
2022-09-14T10:40:58.467Z,965.90
2022-09-14T10:41:58.454Z,965.91
2022-09-14T10:42:58.443Z,965.85
2022-09-14T10:43:58.428Z,965.84
2022-09-14T10:44:58.416Z,965.87
2022-09-14T10:45:58.487Z,965.84
2022-09-14T10:47:02.584Z,965.80
2022-09-14T10:47:59.398Z,965.78
2022-09-14T10:48:58.367Z,965.77
2022-09-14T10:49:58.350Z,965.64
2022-09-14T10:50:58.341Z,965.65
2022-09-14T10:51:58.324Z,965.71
2022-09-14T10:52:58.320Z,965.61
2022-09-14T10:53:58.303Z,965.60
2022-09-14T10:54:58.300Z,965.64
2022-09-14T10:55:58.278Z,965.66
2022-09-14T10:56:58.269Z,965.64
2022-09-14T10:57:58.253Z,965.65
2022-09-14T10:58:58.246Z,965.71
2022-09-14T10:59:58.225Z,965.56
2022-09-14T11:00:58.211Z,965.59
2022-09-14T11:01:58.318Z,965.61
2022-09-14T11:02:58.487Z,965.60
2022-09-14T11:03:58.171Z,965.64
2022-09-14T11:04:58.213Z,965.68
2022-09-14T11:05:58.147Z,965.68
2022-09-14T11:06:58.135Z,965.64
2022-09-14T11:07:58.118Z,965.64
2022-09-14T11:08:58.121Z,965.63
2022-09-14T11:09:58.099Z,965.55
2022-09-14T11:10:58.086Z,965.55
2022-09-14T11:11:58.069Z,965.63
2022-09-14T11:12:58.056Z,965.66
2022-09-14T11:13:58.046Z,965.63
2022-09-14T11:14:58.039Z,965.60
2022-09-14T11:15:58.046Z,965.60
2022-09-14T11:16:58.018Z,965.65
2022-09-14T11:17:58.003Z,965.65
2022-09-14T11:18:58.014Z,965.62
2022-09-14T11:19:57.974Z,965.57
2022-09-14T11:20:57.966Z,965.57
2022-09-14T11:21:57.949Z,965.54
2022-09-14T11:22:57.952Z,965.55
2022-09-14T11:23:57.919Z,965.50
2022-09-14T11:24:57.909Z,965.58
2022-09-14T11:25:57.890Z,965.59
2022-09-14T11:26:57.894Z,965.52
2022-09-14T11:27:57.874Z,965.62
2022-09-14T11:28:57.858Z,965.56
2022-09-14T11:29:57.841Z,965.58
2022-09-14T11:30:57.901Z,965.55
2022-09-14T11:32:19.218Z,965.56
2022-09-14T11:32:58.838Z,965.52
2022-09-14T11:33:57.799Z,965.46
2022-09-14T11:34:57.946Z,965.54
2022-09-14T11:35:57.771Z,965.52
2022-09-14T11:36:58.061Z,965.51
2022-09-14T11:37:57.751Z,965.51
2022-09-14T11:38:57.730Z,965.45
2022-09-14T11:39:57.765Z,965.45
2022-09-14T11:40:57.713Z,965.43
2022-09-14T11:41:57.685Z,965.53
2022-09-14T11:42:57.675Z,965.57
2022-09-14T11:43:57.664Z,965.56
2022-09-14T11:44:57.646Z,965.55
2022-09-14T11:45:57.729Z,965.55
2022-09-14T11:47:00.755Z,965.46
2022-09-14T11:47:57.611Z,965.48
2022-09-14T11:48:58.047Z,965.49
2022-09-14T11:49:57.682Z,965.49
2022-09-14T11:50:57.598Z,965.46
2022-09-14T11:51:57.570Z,965.46
2022-09-14T11:52:57.545Z,965.52
2022-09-14T11:53:57.540Z,965.52
2022-09-14T11:54:57.525Z,965.53
2022-09-14T11:55:57.536Z,965.50
2022-09-14T11:56:57.496Z,965.48
2022-09-14T11:57:57.482Z,965.58
2022-09-14T11:58:57.466Z,965.53
2022-09-14T11:59:57.539Z,965.56
2022-09-14T12:00:57.438Z,965.54
2022-09-14T12:01:57.433Z,965.51
2022-09-14T12:02:57.504Z,965.57
2022-09-14T12:03:57.470Z,965.54
2022-09-14T12:04:57.390Z,965.49
2022-09-14T12:05:57.381Z,965.53
2022-09-14T12:06:57.390Z,965.52
2022-09-14T12:07:57.354Z,965.58
2022-09-14T12:08:57.342Z,965.67
2022-09-14T12:09:57.339Z,965.72
2022-09-14T12:10:57.311Z,965.78
2022-09-14T12:11:57.302Z,965.83
2022-09-14T12:12:57.278Z,965.84
2022-09-14T12:13:57.272Z,965.97
2022-09-14T12:14:57.258Z,965.94
2022-09-14T12:15:57.318Z,965.91
2022-09-14T12:16:57.233Z,966.04
2022-09-14T12:17:57.225Z,966.06
2022-09-14T12:18:57.208Z,966.15
2022-09-14T12:19:57.196Z,966.23
2022-09-14T12:20:57.179Z,966.27
2022-09-14T12:21:57.168Z,966.25
2022-09-14T12:22:57.479Z,966.28
2022-09-14T12:23:57.141Z,966.31
2022-09-14T12:24:57.124Z,966.35
2022-09-14T12:25:57.136Z,966.32
2022-09-14T12:26:57.309Z,966.23
2022-09-14T12:27:57.088Z,966.48
2022-09-14T12:28:57.079Z,966.44
2022-09-14T12:29:57.065Z,966.48